sensor_id;sensor_type;location;lat;lon;timestamp;temperature;humidity
423;DHT22;198;48.752;9.180;2023-01-15T00:00:12;9.80;99.90
423;DHT22;198;48.752;9.180;2023-01-15T00:02:38;9.80;99.90
423;DHT22;198;48.752;9.180;2023-01-15T00:05:04;9.70;99.90
423;DHT22;198;48.752;9.180;2023-01-15T00:07:30;9.80;99.90
423;DHT22;198;48.752;9.180;2023-01-15T00:09:55;9.70;99.90
423;DHT22;198;48.752;9.180;2023-01-15T00:12:21;9.70;99.90
423;DHT22;198;48.752;9.180;2023-01-15T00:14:46;9.80;99.90
423;DHT22;198;48.752;9.180;2023-01-15T00:17:12;9.80;99.90
423;DHT22;198;48.752;9.180;2023-01-15T00:19:37;9.80;99.90
423;DHT22;198;48.752;9.180;2023-01-15T00:22:03;9.80;99.90
423;DHT22;198;48.752;9.180;2023-01-15T00:24:29;9.80;99.90
423;DHT22;198;48.752;9.180;2023-01-15T00:27:13;9.90;99.90
423;DHT22;198;48.752;9.180;2023-01-15T00:29:57;10.00;99.90
423;DHT22;198;48.752;9.180;2023-01-15T00:32:22;10.00;99.90
423;DHT22;198;48.752;9.180;2023-01-15T00:34:48;10.00;99.90
423;DHT22;198;48.752;9.180;2023-01-15T00:37:13;9.90;99.90
423;DHT22;198;48.752;9.180;2023-01-15T00:39:39;10.00;99.90
423;DHT22;198;48.752;9.180;2023-01-15T00:42:04;10.00;99.90
423;DHT22;198;48.752;9.180;2023-01-15T00:44:30;10.00;99.90
423;DHT22;198;48.752;9.180;2023-01-15T00:46:57;10.10;99.90
423;DHT22;198;48.752;9.180;2023-01-15T00:49:23;10.10;99.90
423;DHT22;198;48.752;9.180;2023-01-15T00:51:48;10.20;99.90
423;DHT22;198;48.752;9.180;2023-01-15T00:54:15;10.20;99.90
423;DHT22;198;48.752;9.180;2023-01-15T00:56:41;10.20;99.90
423;DHT22;198;48.752;9.180;2023-01-15T00:59:06;10.20;99.90
423;DHT22;198;48.752;9.180;2023-01-15T01:01:33;10.20;99.90
423;DHT22;198;48.752;9.180;2023-01-15T01:03:59;10.20;99.90
423;DHT22;198;48.752;9.180;2023-01-15T01:06:25;10.20;99.90
423;DHT22;198;48.752;9.180;2023-01-15T01:08:50;10.20;99.90
423;DHT22;198;48.752;9.180;2023-01-15T01:11:21;10.30;99.90
423;DHT22;198;48.752;9.180;2023-01-15T01:13:52;10.30;99.90
423;DHT22;198;48.752;9.180;2023-01-15T01:16:32;10.30;99.90
423;DHT22;198;48.752;9.180;2023-01-15T01:19:02;10.40;99.90
423;DHT22;198;48.752;9.180;2023-01-15T01:21:29;10.40;99.90
423;DHT22;198;48.752;9.180;2023-01-15T01:23:57;10.30;99.90
423;DHT22;198;48.752;9.180;2023-01-15T01:26:23;10.30;99.90
423;DHT22;198;48.752;9.180;2023-01-15T01:28:52;10.40;99.90
423;DHT22;198;48.752;9.180;2023-01-15T01:31:18;10.30;99.90
423;DHT22;198;48.752;9.180;2023-01-15T01:33:47;10.30;99.90
423;DHT22;198;48.752;9.180;2023-01-15T01:36:14;10.40;99.90
423;DHT22;198;48.752;9.180;2023-01-15T01:38:39;10.40;99.90
423;DHT22;198;48.752;9.180;2023-01-15T01:41:05;10.30;99.90
423;DHT22;198;48.752;9.180;2023-01-15T01:43:49;10.40;99.90
423;DHT22;198;48.752;9.180;2023-01-15T01:46:15;10.40;99.90
423;DHT22;198;48.752;9.180;2023-01-15T01:48:41;10.40;99.90
423;DHT22;198;48.752;9.180;2023-01-15T01:51:06;10.30;99.90
423;DHT22;198;48.752;9.180;2023-01-15T01:53:32;10.30;99.90
423;DHT22;198;48.752;9.180;2023-01-15T01:55:58;10.30;99.90
423;DHT22;198;48.752;9.180;2023-01-15T01:58:28;10.30;99.90
423;DHT22;198;48.752;9.180;2023-01-15T02:00:55;10.40;99.90
423;DHT22;198;48.752;9.180;2023-01-15T02:03:23;10.40;99.90
423;DHT22;198;48.752;9.180;2023-01-15T02:05:52;10.40;99.90
423;DHT22;198;48.752;9.180;2023-01-15T02:08:19;10.40;99.90
423;DHT22;198;48.752;9.180;2023-01-15T02:10:54;10.40;99.90
423;DHT22;198;48.752;9.180;2023-01-15T02:16:08;10.30;99.90
423;DHT22;198;48.752;9.180;2023-01-15T02:24:06;10.30;99.90
423;DHT22;198;48.752;9.180;2023-01-15T02:27:08;10.40;99.90
423;DHT22;198;48.752;9.180;2023-01-15T02:29:54;10.40;99.90
423;DHT22;198;48.752;9.180;2023-01-15T02:32:40;10.40;99.90
423;DHT22;198;48.752;9.180;2023-01-15T02:35:28;10.40;99.90
423;DHT22;198;48.752;9.180;2023-01-15T02:37:59;10.40;99.90
423;DHT22;198;48.752;9.180;2023-01-15T02:40:25;10.50;99.90
423;DHT22;198;48.752;9.180;2023-01-15T02:42:53;10.50;99.90
423;DHT22;198;48.752;9.180;2023-01-15T02:45:24;10.50;99.90
423;DHT22;198;48.752;9.180;2023-01-15T02:47:53;10.50;99.90
423;DHT22;198;48.752;9.180;2023-01-15T02:50:25;10.50;99.90
423;DHT22;198;48.752;9.180;2023-01-15T02:52:57;10.50;99.90
423;DHT22;198;48.752;9.180;2023-01-15T02:55:27;10.50;99.90
423;DHT22;198;48.752;9.180;2023-01-15T02:57:57;10.50;99.90
423;DHT22;198;48.752;9.180;2023-01-15T03:00:25;10.50;99.90
423;DHT22;198;48.752;9.180;2023-01-15T03:02:58;10.50;99.90
423;DHT22;198;48.752;9.180;2023-01-15T03:05:30;10.50;99.90
423;DHT22;198;48.752;9.180;2023-01-15T03:07:59;10.50;99.90
423;DHT22;198;48.752;9.180;2023-01-15T03:10:39;10.40;99.90
423;DHT22;198;48.752;9.180;2023-01-15T03:13:12;10.40;99.90
423;DHT22;198;48.752;9.180;2023-01-15T03:15:50;10.40;99.90
423;DHT22;198;48.752;9.180;2023-01-15T03:18:51;10.50;99.90
423;DHT22;198;48.752;9.180;2023-01-15T03:21:21;10.50;99.90
423;DHT22;198;48.752;9.180;2023-01-15T03:23:52;10.50;99.90
423;DHT22;198;48.752;9.180;2023-01-15T03:26:19;10.50;99.90
423;DHT22;198;48.752;9.180;2023-01-15T03:28:46;10.50;99.90
423;DHT22;198;48.752;9.180;2023-01-15T03:31:12;10.60;99.90
423;DHT22;198;48.752;9.180;2023-01-15T03:33:38;10.60;99.90
423;DHT22;198;48.752;9.180;2023-01-15T03:36:04;10.60;99.90
423;DHT22;198;48.752;9.180;2023-01-15T03:38:36;10.60;99.90
423;DHT22;198;48.752;9.180;2023-01-15T03:54:20;10.80;99.90
423;DHT22;198;48.752;9.180;2023-01-15T03:56:55;10.80;99.90
423;DHT22;198;48.752;9.180;2023-01-15T03:59:31;10.90;99.90
423;DHT22;198;48.752;9.180;2023-01-15T04:01:59;10.90;99.90
423;DHT22;198;48.752;9.180;2023-01-15T04:04:26;10.90;99.90
423;DHT22;198;48.752;9.180;2023-01-15T04:06:53;11.00;99.90
423;DHT22;198;48.752;9.180;2023-01-15T04:09:19;11.10;99.90
423;DHT22;198;48.752;9.180;2023-01-15T04:11:45;11.10;99.90
423;DHT22;198;48.752;9.180;2023-01-15T04:14:13;11.10;99.90
423;DHT22;198;48.752;9.180;2023-01-15T04:16:38;11.10;99.90
423;DHT22;198;48.752;9.180;2023-01-15T04:19:04;11.20;99.90
423;DHT22;198;48.752;9.180;2023-01-15T04:21:29;11.20;99.90
423;DHT22;198;48.752;9.180;2023-01-15T04:23:55;11.20;99.90
423;DHT22;198;48.752;9.180;2023-01-15T04:26:21;11.10;99.90
423;DHT22;198;48.752;9.180;2023-01-15T04:28:46;11.10;99.90
423;DHT22;198;48.752;9.180;2023-01-15T04:31:12;11.10;99.90
423;DHT22;198;48.752;9.180;2023-01-15T04:33:38;11.10;99.90
423;DHT22;198;48.752;9.180;2023-01-15T04:36:04;11.00;99.90
423;DHT22;198;48.752;9.180;2023-01-15T04:38:30;11.00;99.90
423;DHT22;198;48.752;9.180;2023-01-15T04:41:00;11.00;99.90
423;DHT22;198;48.752;9.180;2023-01-15T04:43:44;11.00;99.90
423;DHT22;198;48.752;9.180;2023-01-15T04:46:28;10.90;99.90
423;DHT22;198;48.752;9.180;2023-01-15T04:48:53;11.00;99.90
423;DHT22;198;48.752;9.180;2023-01-15T04:51:19;11.10;99.90
423;DHT22;198;48.752;9.180;2023-01-15T04:53:44;11.10;99.90
423;DHT22;198;48.752;9.180;2023-01-15T04:56:10;10.90;99.90
423;DHT22;198;48.752;9.180;2023-01-15T04:58:35;10.90;99.90
423;DHT22;198;48.752;9.180;2023-01-15T05:01:02;10.80;99.90
423;DHT22;198;48.752;9.180;2023-01-15T05:03:29;10.80;99.90
423;DHT22;198;48.752;9.180;2023-01-15T05:06:00;10.80;99.90
423;DHT22;198;48.752;9.180;2023-01-15T05:08:27;10.90;99.90
423;DHT22;198;48.752;9.180;2023-01-15T05:10:52;10.90;99.90
423;DHT22;198;48.752;9.180;2023-01-15T05:13:17;10.90;99.90
423;DHT22;198;48.752;9.180;2023-01-15T05:15:43;10.80;99.90
423;DHT22;198;48.752;9.180;2023-01-15T05:18:11;10.80;99.90
423;DHT22;198;48.752;9.180;2023-01-15T05:20:39;10.90;99.90
423;DHT22;198;48.752;9.180;2023-01-15T05:23:05;10.90;99.90
423;DHT22;198;48.752;9.180;2023-01-15T05:25:30;11.00;99.90
423;DHT22;198;48.752;9.180;2023-01-15T05:27:56;10.90;99.90
423;DHT22;198;48.752;9.180;2023-01-15T05:30:21;10.80;99.90
423;DHT22;198;48.752;9.180;2023-01-15T05:32:47;10.80;99.90
423;DHT22;198;48.752;9.180;2023-01-15T05:35:12;10.70;99.90
423;DHT22;198;48.752;9.180;2023-01-15T05:37:38;10.70;99.90
423;DHT22;198;48.752;9.180;2023-01-15T05:40:04;10.40;99.90
423;DHT22;198;48.752;9.180;2023-01-15T05:42:29;10.00;99.90
423;DHT22;198;48.752;9.180;2023-01-15T05:44:55;9.60;99.90
423;DHT22;198;48.752;9.180;2023-01-15T05:47:20;9.40;99.90
423;DHT22;198;48.752;9.180;2023-01-15T05:49:46;9.30;99.90
423;DHT22;198;48.752;9.180;2023-01-15T05:52:13;9.10;99.90
423;DHT22;198;48.752;9.180;2023-01-15T05:54:38;8.90;99.90
423;DHT22;198;48.752;9.180;2023-01-15T05:57:04;8.80;99.90
423;DHT22;198;48.752;9.180;2023-01-15T05:59:31;8.60;99.90
423;DHT22;198;48.752;9.180;2023-01-15T06:01:57;8.40;99.90
423;DHT22;198;48.752;9.180;2023-01-15T06:04:24;8.30;99.90
423;DHT22;198;48.752;9.180;2023-01-15T06:06:51;8.10;99.90
423;DHT22;198;48.752;9.180;2023-01-15T06:09:18;8.10;99.90
423;DHT22;198;48.752;9.180;2023-01-15T06:11:43;8.00;99.90
423;DHT22;198;48.752;9.180;2023-01-15T06:14:10;7.90;99.90
423;DHT22;198;48.752;9.180;2023-01-15T06:16:37;7.90;99.90
423;DHT22;198;48.752;9.180;2023-01-15T06:19:04;7.80;99.90
423;DHT22;198;48.752;9.180;2023-01-15T06:21:31;7.80;99.90
423;DHT22;198;48.752;9.180;2023-01-15T06:23:57;7.80;99.90
423;DHT22;198;48.752;9.180;2023-01-15T06:26:23;7.70;99.90
423;DHT22;198;48.752;9.180;2023-01-15T06:28:49;7.70;99.90
423;DHT22;198;48.752;9.180;2023-01-15T06:31:17;7.70;99.90
423;DHT22;198;48.752;9.180;2023-01-15T06:33:43;7.60;99.90
423;DHT22;198;48.752;9.180;2023-01-15T06:36:12;7.60;99.90
423;DHT22;198;48.752;9.180;2023-01-15T06:38:38;7.60;99.90
423;DHT22;198;48.752;9.180;2023-01-15T06:41:06;7.60;99.90
423;DHT22;198;48.752;9.180;2023-01-15T06:43:51;7.70;99.90
423;DHT22;198;48.752;9.180;2023-01-15T06:46:42;7.60;99.90
423;DHT22;198;48.752;9.180;2023-01-15T06:49:26;7.60;99.90
423;DHT22;198;48.752;9.180;2023-01-15T06:51:52;7.60;99.90
423;DHT22;198;48.752;9.180;2023-01-15T06:54:17;7.60;99.90
423;DHT22;198;48.752;9.180;2023-01-15T06:56:43;7.60;99.90
423;DHT22;198;48.752;9.180;2023-01-15T06:59:08;7.60;99.90
423;DHT22;198;48.752;9.180;2023-01-15T07:01:33;7.60;99.90
423;DHT22;198;48.752;9.180;2023-01-15T07:03:59;7.60;99.90
423;DHT22;198;48.752;9.180;2023-01-15T07:06:24;7.70;99.90
423;DHT22;198;48.752;9.180;2023-01-15T07:08:51;7.60;99.90
423;DHT22;198;48.752;9.180;2023-01-15T07:11:17;7.50;99.90
423;DHT22;198;48.752;9.180;2023-01-15T07:13:42;7.40;99.90
423;DHT22;198;48.752;9.180;2023-01-15T07:16:08;7.40;99.90
423;DHT22;198;48.752;9.180;2023-01-15T07:18:51;7.30;99.90
423;DHT22;198;48.752;9.180;2023-01-15T07:21:17;7.20;99.90
423;DHT22;198;48.752;9.180;2023-01-15T07:23:43;7.20;99.90
423;DHT22;198;48.752;9.180;2023-01-15T07:26:09;7.10;99.90
423;DHT22;198;48.752;9.180;2023-01-15T07:28:34;7.00;99.90
423;DHT22;198;48.752;9.180;2023-01-15T07:31:00;7.00;99.90
423;DHT22;198;48.752;9.180;2023-01-15T07:33:25;6.90;99.90
423;DHT22;198;48.752;9.180;2023-01-15T07:35:51;6.70;99.90
423;DHT22;198;48.752;9.180;2023-01-15T07:38:16;6.70;99.90
423;DHT22;198;48.752;9.180;2023-01-15T07:40:42;6.60;99.90
423;DHT22;198;48.752;9.180;2023-01-15T07:43:09;6.50;99.90
423;DHT22;198;48.752;9.180;2023-01-15T07:45:53;6.60;99.90
423;DHT22;198;48.752;9.180;2023-01-15T07:48:37;6.50;99.90
423;DHT22;198;48.752;9.180;2023-01-15T07:51:21;6.40;99.90
423;DHT22;198;48.752;9.180;2023-01-15T07:53:46;6.40;99.90
423;DHT22;198;48.752;9.180;2023-01-15T07:56:12;6.40;99.90
423;DHT22;198;48.752;9.180;2023-01-15T07:58:38;6.40;99.90
423;DHT22;198;48.752;9.180;2023-01-15T08:01:03;6.40;99.90
423;DHT22;198;48.752;9.180;2023-01-15T08:03:28;6.40;99.90
423;DHT22;198;48.752;9.180;2023-01-15T08:05:54;6.40;99.90
423;DHT22;198;48.752;9.180;2023-01-15T08:08:19;6.40;99.90
423;DHT22;198;48.752;9.180;2023-01-15T08:10:45;6.40;99.90
423;DHT22;198;48.752;9.180;2023-01-15T08:13:29;6.50;99.90
423;DHT22;198;48.752;9.180;2023-01-15T08:16:13;6.50;99.90
423;DHT22;198;48.752;9.180;2023-01-15T08:18:39;6.40;99.90
423;DHT22;198;48.752;9.180;2023-01-15T08:21:05;6.50;99.90
423;DHT22;198;48.752;9.180;2023-01-15T08:23:30;6.50;99.90
423;DHT22;198;48.752;9.180;2023-01-15T08:25:59;6.40;99.90
423;DHT22;198;48.752;9.180;2023-01-15T08:28:25;6.40;99.90
423;DHT22;198;48.752;9.180;2023-01-15T08:30:51;6.30;99.90
423;DHT22;198;48.752;9.180;2023-01-15T08:33:17;6.40;99.90
423;DHT22;198;48.752;9.180;2023-01-15T08:35:42;6.40;99.90
423;DHT22;198;48.752;9.180;2023-01-15T08:38:08;6.40;99.90
423;DHT22;198;48.752;9.180;2023-01-15T08:40:34;6.40;99.90
423;DHT22;198;48.752;9.180;2023-01-15T08:43:01;6.40;99.90
423;DHT22;198;48.752;9.180;2023-01-15T08:45:26;6.40;99.90
423;DHT22;198;48.752;9.180;2023-01-15T08:47:55;6.40;99.90
423;DHT22;198;48.752;9.180;2023-01-15T08:50:22;6.40;99.90
423;DHT22;198;48.752;9.180;2023-01-15T08:52:47;6.40;99.90
423;DHT22;198;48.752;9.180;2023-01-15T08:55:13;6.40;99.90
423;DHT22;198;48.752;9.180;2023-01-15T08:57:38;6.50;99.90
423;DHT22;198;48.752;9.180;2023-01-15T09:00:05;6.50;99.90
423;DHT22;198;48.752;9.180;2023-01-15T09:02:30;6.50;99.90
423;DHT22;198;48.752;9.180;2023-01-15T09:04:56;6.50;99.90
423;DHT22;198;48.752;9.180;2023-01-15T09:07:22;6.40;99.90
423;DHT22;198;48.752;9.180;2023-01-15T09:09:47;6.40;99.90
423;DHT22;198;48.752;9.180;2023-01-15T09:12:13;6.50;99.90
423;DHT22;198;48.752;9.180;2023-01-15T09:14:38;6.60;99.90
423;DHT22;198;48.752;9.180;2023-01-15T09:17:04;6.60;99.90
423;DHT22;198;48.752;9.180;2023-01-15T09:19:29;6.70;99.90
423;DHT22;198;48.752;9.180;2023-01-15T09:21:55;6.70;99.90
423;DHT22;198;48.752;9.180;2023-01-15T09:24:20;6.80;99.90
423;DHT22;198;48.752;9.180;2023-01-15T09:26:46;6.80;99.90
423;DHT22;198;48.752;9.180;2023-01-15T09:29:12;6.90;99.90
423;DHT22;198;48.752;9.180;2023-01-15T09:31:37;6.90;99.90
423;DHT22;198;48.752;9.180;2023-01-15T09:34:03;6.90;99.90
423;DHT22;198;48.752;9.180;2023-01-15T09:36:30;7.00;99.90
423;DHT22;198;48.752;9.180;2023-01-15T09:38:57;7.00;99.90
423;DHT22;198;48.752;9.180;2023-01-15T09:41:25;7.00;99.90
423;DHT22;198;48.752;9.180;2023-01-15T09:47:17;7.10;99.90
423;DHT22;198;48.752;9.180;2023-01-15T09:49:54;7.10;99.90
423;DHT22;198;48.752;9.180;2023-01-15T09:55:01;7.00;99.90
423;DHT22;198;48.752;9.180;2023-01-15T09:57:28;7.00;99.90
423;DHT22;198;48.752;9.180;2023-01-15T09:59:55;6.90;99.90
423;DHT22;198;48.752;9.180;2023-01-15T10:02:41;6.90;99.90
423;DHT22;198;48.752;9.180;2023-01-15T10:07:56;7.10;99.90
423;DHT22;198;48.752;9.180;2023-01-15T10:10:27;7.20;99.90
423;DHT22;198;48.752;9.180;2023-01-15T10:13:03;7.20;99.90
423;DHT22;198;48.752;9.180;2023-01-15T10:15:39;7.10;99.90
423;DHT22;198;48.752;9.180;2023-01-15T10:18:05;7.00;99.90
423;DHT22;198;48.752;9.180;2023-01-15T10:20:48;7.10;99.90
423;DHT22;198;48.752;9.180;2023-01-15T10:23:25;7.10;99.90
423;DHT22;198;48.752;9.180;2023-01-15T10:28:30;7.10;99.90
423;DHT22;198;48.752;9.180;2023-01-15T10:31:03;7.20;99.90
423;DHT22;198;48.752;9.180;2023-01-15T10:36:47;7.20;99.90
423;DHT22;198;48.752;9.180;2023-01-15T10:39:36;7.20;99.90
423;DHT22;198;48.752;9.180;2023-01-15T10:45:10;7.10;99.90
423;DHT22;198;48.752;9.180;2023-01-15T10:47:38;7.10;99.90
423;DHT22;198;48.752;9.180;2023-01-15T10:50:16;7.20;99.90
423;DHT22;198;48.752;9.180;2023-01-15T10:56:40;7.20;99.90
423;DHT22;198;48.752;9.180;2023-01-15T10:58:51;7.30;99.90
423;DHT22;198;48.752;9.180;2023-01-15T11:01:19;7.30;99.90
423;DHT22;198;48.752;9.180;2023-01-15T11:03:48;7.30;99.90
423;DHT22;198;48.752;9.180;2023-01-15T11:06:16;7.30;99.90
423;DHT22;198;48.752;9.180;2023-01-15T11:08:44;7.10;99.90
423;DHT22;198;48.752;9.180;2023-01-15T11:13:53;6.80;99.90
423;DHT22;198;48.752;9.180;2023-01-15T11:16:37;6.70;99.90
423;DHT22;198;48.752;9.180;2023-01-15T11:19:29;6.60;99.90
423;DHT22;198;48.752;9.180;2023-01-15T11:22:09;6.40;99.90
423;DHT22;198;48.752;9.180;2023-01-15T11:24:53;6.30;99.90
423;DHT22;198;48.752;9.180;2023-01-15T11:27:22;6.10;99.90
423;DHT22;198;48.752;9.180;2023-01-15T11:29:54;6.00;99.90
423;DHT22;198;48.752;9.180;2023-01-15T11:32:34;5.90;99.90
423;DHT22;198;48.752;9.180;2023-01-15T11:35:17;5.90;99.90
423;DHT22;198;48.752;9.180;2023-01-15T11:37:42;5.70;99.90
423;DHT22;198;48.752;9.180;2023-01-15T11:40:19;5.50;99.90
423;DHT22;198;48.752;9.180;2023-01-15T11:42:48;5.30;99.90
423;DHT22;198;48.752;9.180;2023-01-15T11:45:33;5.30;99.90
423;DHT22;198;48.752;9.180;2023-01-15T11:48:19;5.20;99.90
423;DHT22;198;48.752;9.180;2023-01-15T11:51:07;5.00;99.90
423;DHT22;198;48.752;9.180;2023-01-15T11:53:39;4.90;99.90
423;DHT22;198;48.752;9.180;2023-01-15T11:56:08;4.90;99.90
423;DHT22;198;48.752;9.180;2023-01-15T12:01:23;4.90;99.90
423;DHT22;198;48.752;9.180;2023-01-15T12:03:52;4.80;99.90
423;DHT22;198;48.752;9.180;2023-01-15T12:06:19;4.80;99.90
423;DHT22;198;48.752;9.180;2023-01-15T12:08:46;4.60;99.90
423;DHT22;198;48.752;9.180;2023-01-15T12:14:40;4.60;99.90
423;DHT22;198;48.752;9.180;2023-01-15T12:28:08;4.60;99.90
423;DHT22;198;48.752;9.180;2023-01-15T12:33:35;4.60;99.90
423;DHT22;198;48.752;9.180;2023-01-15T12:41:30;4.60;99.90
423;DHT22;198;48.752;9.180;2023-01-15T12:44:38;4.60;99.90
423;DHT22;198;48.752;9.180;2023-01-15T12:48:04;4.60;99.90
423;DHT22;198;48.752;9.180;2023-01-15T12:50:38;4.60;99.90
423;DHT22;198;48.752;9.180;2023-01-15T12:53:19;4.60;99.90
423;DHT22;198;48.752;9.180;2023-01-15T12:59:01;4.40;99.90
423;DHT22;198;48.752;9.180;2023-01-15T13:01:46;4.40;99.90
423;DHT22;198;48.752;9.180;2023-01-15T13:04:48;4.50;99.90
423;DHT22;198;48.752;9.180;2023-01-15T13:07:17;4.40;99.90
423;DHT22;198;48.752;9.180;2023-01-15T13:09:52;4.50;99.90
423;DHT22;198;48.752;9.180;2023-01-15T13:12:20;4.50;99.90
423;DHT22;198;48.752;9.180;2023-01-15T13:14:45;4.60;99.90
423;DHT22;198;48.752;9.180;2023-01-15T13:22:53;4.90;99.90
423;DHT22;198;48.752;9.180;2023-01-15T13:28:17;5.00;99.90
423;DHT22;198;48.752;9.180;2023-01-15T13:31:15;4.90;99.90
423;DHT22;198;48.752;9.180;2023-01-15T13:33:50;5.00;99.90
423;DHT22;198;48.752;9.180;2023-01-15T13:36:27;5.00;99.90
423;DHT22;198;48.752;9.180;2023-01-15T13:38:59;4.90;99.90
423;DHT22;198;48.752;9.180;2023-01-15T13:41:28;4.90;99.90
423;DHT22;198;48.752;9.180;2023-01-15T13:44:22;4.90;99.90
423;DHT22;198;48.752;9.180;2023-01-15T13:47:05;4.90;99.90
423;DHT22;198;48.752;9.180;2023-01-15T13:49:36;4.90;99.90
423;DHT22;198;48.752;9.180;2023-01-15T13:52:04;4.90;99.90
423;DHT22;198;48.752;9.180;2023-01-15T13:54:35;4.80;99.90
423;DHT22;198;48.752;9.180;2023-01-15T13:57:32;4.80;99.90
423;DHT22;198;48.752;9.180;2023-01-15T13:59:59;4.80;99.90
423;DHT22;198;48.752;9.180;2023-01-15T14:02:29;4.80;99.90
423;DHT22;198;48.752;9.180;2023-01-15T14:04:56;4.80;99.90
423;DHT22;198;48.752;9.180;2023-01-15T14:07:34;4.80;99.90
423;DHT22;198;48.752;9.180;2023-01-15T14:15:37;5.00;99.90
423;DHT22;198;48.752;9.180;2023-01-15T14:18:19;5.10;99.90
423;DHT22;198;48.752;9.180;2023-01-15T14:23:43;5.10;99.90
423;DHT22;198;48.752;9.180;2023-01-15T14:29:17;5.20;99.90
423;DHT22;198;48.752;9.180;2023-01-15T14:32:11;5.20;99.90
423;DHT22;198;48.752;9.180;2023-01-15T14:34:40;5.20;99.90
423;DHT22;198;48.752;9.180;2023-01-15T14:37:22;5.20;99.90
423;DHT22;198;48.752;9.180;2023-01-15T14:39:48;5.20;99.90
423;DHT22;198;48.752;9.180;2023-01-15T14:42:36;5.10;99.90
423;DHT22;198;48.752;9.180;2023-01-15T14:45:26;5.10;99.90
423;DHT22;198;48.752;9.180;2023-01-15T14:47:54;5.20;99.90
423;DHT22;198;48.752;9.180;2023-01-15T14:52:53;5.20;99.90
423;DHT22;198;48.752;9.180;2023-01-15T14:55:20;5.20;99.90
423;DHT22;198;48.752;9.180;2023-01-15T14:57:59;5.20;99.90
423;DHT22;198;48.752;9.180;2023-01-15T15:00:34;5.10;99.90
423;DHT22;198;48.752;9.180;2023-01-15T15:03:00;5.10;99.90
423;DHT22;198;48.752;9.180;2023-01-15T15:05:30;5.10;99.90
423;DHT22;198;48.752;9.180;2023-01-15T15:07:57;5.10;99.90
423;DHT22;198;48.752;9.180;2023-01-15T15:10:30;5.00;99.90
423;DHT22;198;48.752;9.180;2023-01-15T15:20:49;5.10;99.90
423;DHT22;198;48.752;9.180;2023-01-15T15:23:55;5.10;99.90
423;DHT22;198;48.752;9.180;2023-01-15T15:26:27;5.00;99.90
423;DHT22;198;48.752;9.180;2023-01-15T15:29:00;4.90;99.90
423;DHT22;198;48.752;9.180;2023-01-15T15:31:28;4.90;99.90
423;DHT22;198;48.752;9.180;2023-01-15T15:33:55;4.90;99.90
423;DHT22;198;48.752;9.180;2023-01-15T15:36:23;4.80;99.90
423;DHT22;198;48.752;9.180;2023-01-15T15:38:59;4.80;99.90
423;DHT22;198;48.752;9.180;2023-01-15T15:41:31;4.80;99.90
423;DHT22;198;48.752;9.180;2023-01-15T15:44:35;4.70;99.90
423;DHT22;198;48.752;9.180;2023-01-15T15:47:24;4.70;99.90
423;DHT22;198;48.752;9.180;2023-01-15T15:50:20;4.70;99.90
423;DHT22;198;48.752;9.180;2023-01-15T15:52:49;4.70;99.90
423;DHT22;198;48.752;9.180;2023-01-15T15:55:15;4.60;99.90
423;DHT22;198;48.752;9.180;2023-01-15T15:57:46;4.60;99.90
423;DHT22;198;48.752;9.180;2023-01-15T16:00:18;4.60;99.90
423;DHT22;198;48.752;9.180;2023-01-15T16:02:45;4.60;99.90
423;DHT22;198;48.752;9.180;2023-01-15T16:05:27;4.50;99.90
423;DHT22;198;48.752;9.180;2023-01-15T16:08:19;4.50;99.90
423;DHT22;198;48.752;9.180;2023-01-15T16:10:50;4.50;99.90
423;DHT22;198;48.752;9.180;2023-01-15T16:13:30;4.50;99.90
423;DHT22;198;48.752;9.180;2023-01-15T16:15:59;4.40;99.90
423;DHT22;198;48.752;9.180;2023-01-15T16:18:31;4.50;99.90
423;DHT22;198;48.752;9.180;2023-01-15T16:20:57;4.40;99.90
423;DHT22;198;48.752;9.180;2023-01-15T16:23:26;4.40;99.90
423;DHT22;198;48.752;9.180;2023-01-15T16:25:58;4.40;99.90
423;DHT22;198;48.752;9.180;2023-01-15T16:28:27;4.40;99.90
423;DHT22;198;48.752;9.180;2023-01-15T16:30:56;4.40;99.90
423;DHT22;198;48.752;9.180;2023-01-15T16:33:23;4.40;99.90
423;DHT22;198;48.752;9.180;2023-01-15T16:35:55;4.30;99.90
423;DHT22;198;48.752;9.180;2023-01-15T16:38:22;4.30;99.90
423;DHT22;198;48.752;9.180;2023-01-15T16:40:47;4.30;99.90
423;DHT22;198;48.752;9.180;2023-01-15T16:43:17;4.30;99.90
423;DHT22;198;48.752;9.180;2023-01-15T16:48:36;4.30;99.90
423;DHT22;198;48.752;9.180;2023-01-15T16:53:51;4.20;99.90
423;DHT22;198;48.752;9.180;2023-01-15T16:59:18;4.20;99.90
423;DHT22;198;48.752;9.180;2023-01-15T17:02:12;4.10;99.90
423;DHT22;198;48.752;9.180;2023-01-15T17:04:40;4.10;99.90
423;DHT22;198;48.752;9.180;2023-01-15T17:09:53;4.10;99.90
423;DHT22;198;48.752;9.180;2023-01-15T17:12:27;4.20;99.90
423;DHT22;198;48.752;9.180;2023-01-15T17:15:02;4.20;99.90
423;DHT22;198;48.752;9.180;2023-01-15T17:17:48;4.10;99.90
423;DHT22;198;48.752;9.180;2023-01-15T17:20:15;4.20;99.90
423;DHT22;198;48.752;9.180;2023-01-15T17:22:42;4.20;99.90
423;DHT22;198;48.752;9.180;2023-01-15T17:25:24;4.20;99.90
423;DHT22;198;48.752;9.180;2023-01-15T17:27:51;4.20;99.90
423;DHT22;198;48.752;9.180;2023-01-15T17:30:17;4.20;99.90
423;DHT22;198;48.752;9.180;2023-01-15T17:32:43;4.10;99.90
423;DHT22;198;48.752;9.180;2023-01-15T17:37:50;4.10;99.90
423;DHT22;198;48.752;9.180;2023-01-15T17:40:15;4.20;99.90
423;DHT22;198;48.752;9.180;2023-01-15T17:42:41;4.20;99.90
423;DHT22;198;48.752;9.180;2023-01-15T17:45:18;4.10;99.90
423;DHT22;198;48.752;9.180;2023-01-15T17:47:45;4.10;99.90
423;DHT22;198;48.752;9.180;2023-01-15T17:50:12;4.10;99.90
423;DHT22;198;48.752;9.180;2023-01-15T17:52:38;4.10;99.90
423;DHT22;198;48.752;9.180;2023-01-15T17:55:05;4.10;99.90
423;DHT22;198;48.752;9.180;2023-01-15T17:57:49;4.00;99.90
423;DHT22;198;48.752;9.180;2023-01-15T18:00:33;4.00;99.90
423;DHT22;198;48.752;9.180;2023-01-15T18:03:19;4.00;99.90
423;DHT22;198;48.752;9.180;2023-01-15T18:06:06;4.00;99.90
423;DHT22;198;48.752;9.180;2023-01-15T18:08:33;4.00;99.90
423;DHT22;198;48.752;9.180;2023-01-15T18:10:59;4.00;99.90
423;DHT22;198;48.752;9.180;2023-01-15T18:13:25;3.90;99.90
423;DHT22;198;48.752;9.180;2023-01-15T18:15:50;3.90;99.90
423;DHT22;198;48.752;9.180;2023-01-15T18:18:17;3.90;99.90
423;DHT22;198;48.752;9.180;2023-01-15T18:20:43;3.80;99.90
423;DHT22;198;48.752;9.180;2023-01-15T18:23:09;3.80;99.90
423;DHT22;198;48.752;9.180;2023-01-15T18:25:35;3.80;99.90
423;DHT22;198;48.752;9.180;2023-01-15T18:28:00;3.80;99.90
423;DHT22;198;48.752;9.180;2023-01-15T18:30:26;3.80;99.90
423;DHT22;198;48.752;9.180;2023-01-15T18:32:51;3.80;99.90
423;DHT22;198;48.752;9.180;2023-01-15T18:35:17;3.80;99.90
423;DHT22;198;48.752;9.180;2023-01-15T18:37:43;3.80;99.90
423;DHT22;198;48.752;9.180;2023-01-15T18:40:10;3.80;99.90
423;DHT22;198;48.752;9.180;2023-01-15T18:42:38;3.70;99.90
423;DHT22;198;48.752;9.180;2023-01-15T18:45:23;3.80;99.90
423;DHT22;198;48.752;9.180;2023-01-15T18:48:07;3.70;99.90
423;DHT22;198;48.752;9.180;2023-01-15T18:50:32;3.70;99.90
423;DHT22;198;48.752;9.180;2023-01-15T18:52:58;3.70;99.90
423;DHT22;198;48.752;9.180;2023-01-15T18:55:24;3.70;99.90
423;DHT22;198;48.752;9.180;2023-01-15T18:57:53;3.70;99.90
423;DHT22;198;48.752;9.180;2023-01-15T19:00:20;3.70;99.90
423;DHT22;198;48.752;9.180;2023-01-15T19:02:46;3.70;99.90
423;DHT22;198;48.752;9.180;2023-01-15T19:05:12;3.70;99.90
423;DHT22;198;48.752;9.180;2023-01-15T19:07:40;3.70;99.90